createdAt,value
2023-03-30T00:01:44.087Z,100491.44
2023-03-30T00:04:12.804Z,100494.66
2023-03-30T00:06:39.784Z,100485.78
2023-03-30T00:09:13.029Z,100485.69
2023-03-30T00:11:39.926Z,100482.44
2023-03-30T00:14:13.029Z,100484.13
2023-03-30T00:16:40.204Z,100481.59
2023-03-30T00:19:14.101Z,100466.72
2023-03-30T00:21:48.029Z,100458.81
2023-03-30T00:24:14.946Z,100456.28
2023-03-30T00:26:49.008Z,100458.00
2023-03-30T00:29:15.895Z,100459.38
2023-03-30T00:31:49.105Z,100457.41
2023-03-30T00:34:16.023Z,100451.22
2023-03-30T00:36:49.070Z,100433.94
2023-03-30T00:39:19.478Z,100436.59
2023-03-30T00:41:53.094Z,100436.88
2023-03-30T00:45:04.056Z,100436.47
2023-03-30T00:47:37.085Z,100428.13
2023-03-30T00:50:12.611Z,100438.13
2023-03-30T00:52:47.998Z,100438.13
2023-03-30T00:55:21.234Z,100418.16
2023-03-30T00:57:58.106Z,100407.34
2023-03-30T01:00:32.120Z,100400.00
2023-03-30T01:03:11.190Z,100386.41
2023-03-30T01:05:41.705Z,100381.31
2023-03-30T01:08:17.109Z,100352.91
2023-03-30T01:10:46.997Z,100354.88
2023-03-30T01:13:22.056Z,100383.16
2023-03-30T01:16:34.221Z,100388.34
2023-03-30T01:19:38.795Z,100388.06
2023-03-30T01:22:42.084Z,100389.75
2023-03-30T01:25:57.058Z,100390.72
2023-03-30T01:28:43.072Z,100389.75
2023-03-30T01:31:28.734Z,100380.59
2023-03-30T01:34:35.033Z,100388.19
2023-03-30T01:37:10.967Z,100375.63
2023-03-30T01:40:06.067Z,100366.50
2023-03-30T01:42:41.984Z,100373.81
2023-03-30T01:45:24.015Z,100355.69
2023-03-30T01:47:56.055Z,100351.34
2023-03-30T01:50:42.186Z,100367.91
2023-03-30T01:53:45.337Z,100359.91
2023-03-30T01:56:30.158Z,100323.50
2023-03-30T01:59:02.114Z,100340.78
2023-03-30T02:01:40.368Z,100341.44
2023-03-30T02:04:10.623Z,100340.19
2023-03-30T02:06:51.129Z,100352.13
2023-03-30T02:09:23.962Z,100358.63
2023-03-30T02:12:00.142Z,100374.66
2023-03-30T02:14:29.662Z,100374.53
2023-03-30T02:17:10.283Z,100389.00
2023-03-30T02:19:38.519Z,100384.66
2023-03-30T02:22:13.118Z,100377.19
2023-03-30T02:24:48.074Z,100365.94
2023-03-30T02:27:22.223Z,100372.69
2023-03-30T02:29:49.536Z,100370.84
2023-03-30T02:32:26.139Z,100373.66
2023-03-30T02:35:19.467Z,100368.47
2023-03-30T02:38:31.141Z,100356.94
2023-03-30T02:41:12.974Z,100340.50
2023-03-30T02:44:03.174Z,100324.50
2023-03-30T02:46:51.775Z,100322.56
2023-03-30T02:49:38.142Z,100321.72
2023-03-30T02:52:23.459Z,100310.19
2023-03-30T02:55:29.270Z,100318.34
2023-03-30T02:58:03.395Z,100309.19
2023-03-30T03:00:50.194Z,100312.72
2023-03-30T03:03:45.232Z,100327.91
2023-03-30T03:06:21.251Z,100344.50
2023-03-30T03:08:56.526Z,100329.00
2023-03-30T03:11:30.138Z,100327.47
2023-03-30T03:13:57.351Z,100341.91
2023-03-30T03:16:31.178Z,100335.44
2023-03-30T03:18:58.041Z,100330.09
2023-03-30T03:21:31.215Z,100324.47
2023-03-30T03:23:58.065Z,100334.19
2023-03-30T03:26:31.181Z,100324.75
2023-03-30T03:28:58.110Z,100317.59
2023-03-30T03:31:34.178Z,100330.97
2023-03-30T03:34:01.140Z,100336.00
2023-03-30T03:36:35.106Z,100334.44
2023-03-30T03:39:02.033Z,100341.34
2023-03-30T03:41:28.872Z,100333.19
2023-03-30T03:44:02.218Z,100337.41
2023-03-30T03:46:29.209Z,100331.06
2023-03-30T03:49:02.201Z,100336.09
2023-03-30T03:51:29.650Z,100323.72
2023-03-30T03:54:03.198Z,100319.38
2023-03-30T03:56:30.079Z,100319.22
2023-03-30T03:59:04.191Z,100316.25
2023-03-30T04:01:38.326Z,100317.38
2023-03-30T04:04:12.214Z,100312.03
2023-03-30T04:06:39.206Z,100303.44
2023-03-30T04:09:13.193Z,100313.66
2023-03-30T04:11:40.084Z,100308.06
2023-03-30T04:14:13.156Z,100304.53
2023-03-30T04:16:46.465Z,100302.84
2023-03-30T04:19:20.146Z,100307.19
2023-03-30T04:21:56.225Z,100308.06
2023-03-30T04:24:23.209Z,100294.84
2023-03-30T04:26:57.200Z,100305.22
2023-03-30T04:29:24.322Z,100310.56
2023-03-30T04:31:57.249Z,100310.41
2023-03-30T04:34:24.251Z,100306.19
2023-03-30T04:36:57.311Z,100301.31
2023-03-30T04:39:24.324Z,100296.41
2023-03-30T04:41:59.124Z,100285.41
2023-03-30T04:44:26.096Z,100289.75
2023-03-30T04:46:52.938Z,100282.44
2023-03-30T04:49:26.168Z,100278.09
2023-03-30T04:51:53.476Z,100283.72
2023-03-30T04:54:27.744Z,100282.06
2023-03-30T04:56:54.546Z,100281.03
2023-03-30T04:59:28.157Z,100267.69
2023-03-30T05:02:15.191Z,100282.06
2023-03-30T05:04:49.185Z,100276.84
2023-03-30T05:07:16.009Z,100273.78
2023-03-30T05:09:49.207Z,100279.56
2023-03-30T05:12:16.959Z,100268.19
2023-03-30T05:14:43.945Z,100271.53
2023-03-30T05:17:17.290Z,100269.03
2023-03-30T05:19:50.257Z,100277.91
2023-03-30T05:22:24.264Z,100259.63
2023-03-30T05:24:59.209Z,100265.97
2023-03-30T05:27:33.188Z,100271.31
2023-03-30T05:30:00.106Z,100269.88
2023-03-30T05:32:33.419Z,100279.13
2023-03-30T05:35:07.233Z,100265.31
2023-03-30T05:37:34.161Z,100271.91
2023-03-30T05:40:01.165Z,100270.78
2023-03-30T05:42:34.515Z,100271.16
2023-03-30T05:45:01.788Z,100270.25
2023-03-30T05:47:36.234Z,100282.19
2023-03-30T05:50:03.749Z,100272.47
2023-03-30T05:52:37.330Z,100276.06
2023-03-30T05:55:11.523Z,100291.97
2023-03-30T05:57:45.311Z,100287.06
2023-03-30T06:00:16.541Z,100287.22
2023-03-30T06:02:56.407Z,100282.31
2023-03-30T06:05:23.396Z,100283.22
2023-03-30T06:07:57.158Z,100276.00
2023-03-30T06:10:24.104Z,100280.75
2023-03-30T06:12:57.198Z,100289.22
2023-03-30T06:15:30.220Z,100285.88
2023-03-30T06:17:57.781Z,100281.00
2023-03-30T06:20:33.143Z,100298.00
2023-03-30T06:23:00.186Z,100291.13
2023-03-30T06:25:33.298Z,100289.44
2023-03-30T06:28:00.175Z,100303.06
2023-03-30T06:30:33.411Z,100305.91
2023-03-30T06:33:00.408Z,100309.38
2023-03-30T06:35:34.255Z,100307.72
2023-03-30T06:38:01.662Z,100310.53
2023-03-30T06:40:35.423Z,100307.72
2023-03-30T06:43:02.364Z,100308.41
2023-03-30T06:45:36.296Z,100314.47
2023-03-30T06:48:03.322Z,100308.81
2023-03-30T06:50:36.252Z,100318.50
2023-03-30T06:53:11.248Z,100322.03
2023-03-30T06:55:38.004Z,100333.97
2023-03-30T06:58:11.216Z,100319.81
2023-03-30T07:00:44.304Z,100329.91
2023-03-30T07:03:27.427Z,100332.56
2023-03-30T07:05:54.344Z,100331.69
2023-03-30T07:08:28.287Z,100331.38
2023-03-30T07:10:55.039Z,100333.75
2023-03-30T07:13:29.212Z,100332.31
2023-03-30T07:15:56.762Z,100329.38
2023-03-30T07:18:23.470Z,100337.41
2023-03-30T07:20:57.252Z,100340.88
2023-03-30T07:23:30.272Z,100332.16
2023-03-30T07:26:04.384Z,100332.47
2023-03-30T07:28:31.151Z,100348.38
2023-03-30T07:31:31.399Z,100338.38
2023-03-30T07:34:04.222Z,100338.91
2023-03-30T07:36:37.237Z,100340.47
2023-03-30T07:39:04.512Z,100336.06
2023-03-30T07:41:38.338Z,100340.13
2023-03-30T07:44:05.179Z,100339.38
2023-03-30T07:46:38.300Z,100342.59
2023-03-30T07:49:05.307Z,100352.47
2023-03-30T07:51:39.247Z,100366.81
2023-03-30T07:54:07.046Z,100367.41
2023-03-30T07:56:40.312Z,100380.81
2023-03-30T07:59:15.282Z,100372.25
2023-03-30T08:01:57.280Z,100366.66
2023-03-30T08:04:31.788Z,100363.75
2023-03-30T08:07:05.346Z,100364.16
2023-03-30T08:09:33.787Z,100365.09
2023-03-30T08:12:00.977Z,100362.09
2023-03-30T08:14:34.280Z,100365.16
2023-03-30T08:17:01.436Z,100365.28
2023-03-30T08:19:35.241Z,100357.91
2023-03-30T08:22:02.301Z,100363.63
2023-03-30T08:24:36.210Z,100359.91
2023-03-30T08:27:03.167Z,100370.72
2023-03-30T08:29:38.306Z,100367.69
2023-03-30T08:32:05.274Z,100365.66
2023-03-30T08:34:39.249Z,100366.47
2023-03-30T08:37:06.455Z,100382.59
2023-03-30T08:39:40.403Z,100368.59
2023-03-30T08:42:25.557Z,100367.53
2023-03-30T08:45:02.282Z,100366.81
2023-03-30T08:47:35.183Z,100378.66
2023-03-30T08:50:30.369Z,100385.50
2023-03-30T08:52:57.486Z,100389.88
2023-03-30T08:55:47.326Z,100389.50
2023-03-30T08:58:28.421Z,100396.44
2023-03-30T09:01:22.421Z,100399.25
2023-03-30T09:04:19.494Z,100398.53
2023-03-30T09:07:03.323Z,100399.03
2023-03-30T09:09:32.438Z,100398.69
2023-03-30T09:12:24.348Z,100394.28
2023-03-30T09:15:10.453Z,100390.91
2023-03-30T09:18:02.322Z,100386.91
2023-03-30T09:20:38.338Z,100398.63
2023-03-30T09:23:07.408Z,100403.44
2023-03-30T09:25:49.295Z,100402.91
2023-03-30T09:28:39.320Z,100394.31
2023-03-30T09:31:25.057Z,100404.06
2023-03-30T09:34:29.295Z,100426.59
2023-03-30T09:37:01.653Z,100425.91
2023-03-30T09:39:37.342Z,100418.31
2023-03-30T09:42:38.091Z,100423.75
2023-03-30T09:45:27.394Z,100426.09
2023-03-30T09:47:54.580Z,100420.97
2023-03-30T09:50:35.335Z,100416.41
2023-03-30T09:53:05.084Z,100423.81
2023-03-30T09:55:34.610Z,100426.44
2023-03-30T09:58:21.371Z,100397.16
2023-03-30T10:01:28.329Z,100427.34
2023-03-30T10:04:18.555Z,100429.59
2023-03-30T10:07:00.429Z,100427.88
2023-03-30T10:09:31.378Z,100425.22
2023-03-30T10:12:05.337Z,100431.31
2023-03-30T10:14:36.240Z,100430.47
2023-03-30T10:17:11.378Z,100440.25
2023-03-30T10:19:45.918Z,100437.34
2023-03-30T10:22:27.735Z,100435.34
2023-03-30T10:24:57.272Z,100438.38
2023-03-30T10:27:40.366Z,100438.91
2023-03-30T10:30:19.487Z,100429.50
2023-03-30T10:32:49.150Z,100432.44
2023-03-30T10:35:43.390Z,100430.25
2023-03-30T10:38:13.629Z,100428.72
2023-03-30T10:40:50.313Z,100449.22
2023-03-30T10:43:39.370Z,100467.69
2023-03-30T10:46:24.656Z,100451.41
2023-03-30T10:49:07.356Z,100448.56
2023-03-30T10:51:41.684Z,100459.69
2023-03-30T10:54:27.381Z,100438.16
2023-03-30T10:57:22.391Z,100439.50
2023-03-30T11:00:29.347Z,100450.44
2023-03-30T11:03:15.966Z,100451.00
2023-03-30T11:05:53.344Z,100453.25
2023-03-30T11:08:42.420Z,100452.69
2023-03-30T11:11:34.101Z,100464.13
2023-03-30T11:14:12.366Z,100463.94
2023-03-30T11:16:59.502Z,100471.66
2023-03-30T11:19:35.849Z,100465.06
2023-03-30T11:22:35.484Z,100466.34
2023-03-30T11:25:16.679Z,100469.97
2023-03-30T11:27:56.629Z,100468.00
2023-03-30T11:30:40.522Z,100461.66
2023-03-30T11:33:19.719Z,100468.84
2023-03-30T11:36:02.791Z,100455.63
2023-03-30T11:38:39.479Z,100461.75
2023-03-30T11:41:21.345Z,100466.72
2023-03-30T11:43:48.245Z,100467.56
2023-03-30T11:46:43.413Z,100479.03
2023-03-30T11:49:17.961Z,100452.75
2023-03-30T11:52:01.331Z,100459.34
2023-03-30T11:54:38.627Z,100466.34
2023-03-30T11:57:41.485Z,100472.59
2023-03-30T12:00:36.227Z,100476.50
2023-03-30T12:03:21.603Z,100458.50
2023-03-30T12:06:03.666Z,100466.94
2023-03-30T12:09:05.178Z,100470.34
2023-03-30T12:12:00.432Z,100464.53
2023-03-30T12:14:33.302Z,100480.88
2023-03-30T12:17:33.528Z,100466.69
2023-03-30T12:20:24.674Z,100474.59
2023-03-30T12:23:10.476Z,100464.00
2023-03-30T12:25:50.459Z,100481.78
2023-03-30T12:28:49.459Z,100466.47
2023-03-30T12:31:21.283Z,100466.00
2023-03-30T12:33:59.446Z,100461.03
2023-03-30T12:36:38.404Z,100476.91
2023-03-30T12:39:20.412Z,100465.72
2023-03-30T12:41:50.374Z,100459.63
2023-03-30T12:44:49.481Z,100465.41
2023-03-30T12:47:47.315Z,100465.03
2023-03-30T12:50:38.475Z,100458.00
2023-03-30T12:53:27.122Z,100484.13
2023-03-30T12:56:08.746Z,100477.78
2023-03-30T12:58:57.395Z,100468.28
2023-03-30T13:01:56.396Z,100482.84
2023-03-30T13:04:41.512Z,100476.56
2023-03-30T13:07:40.355Z,100471.19
2023-03-30T13:10:35.438Z,100461.16
2023-03-30T13:13:11.484Z,100458.13
2023-03-30T13:16:12.843Z,100464.78
2023-03-30T13:19:02.401Z,100464.09
2023-03-30T13:21:54.428Z,100464.63
2023-03-30T13:24:38.494Z,100466.81
2023-03-30T13:27:32.446Z,100474.06
2023-03-30T13:30:19.562Z,100473.72
2023-03-30T13:32:53.654Z,100458.00
2023-03-30T13:35:32.542Z,100460.38
2023-03-30T13:38:07.882Z,100444.25
2023-03-30T13:41:10.470Z,100431.63
2023-03-30T13:44:01.542Z,100443.31
2023-03-30T13:46:42.467Z,100436.22
2023-03-30T13:49:33.517Z,100432.75
2023-03-30T13:52:12.273Z,100452.94
2023-03-30T13:54:47.882Z,100445.59
2023-03-30T13:57:28.585Z,100445.31
2023-03-30T14:00:19.983Z,100452.28
2023-03-30T14:02:59.537Z,100452.47
2023-03-30T14:05:28.152Z,100463.72
2023-03-30T14:07:59.167Z,100446.00
2023-03-30T14:10:33.461Z,100447.25
2023-03-30T14:13:06.531Z,100471.84
2023-03-30T14:15:37.914Z,100450.38
2023-03-30T14:18:12.509Z,100463.94
2023-03-30T14:20:54.431Z,100458.47
2023-03-30T14:23:37.540Z,100464.28
2023-03-30T14:26:23.506Z,100455.97
2023-03-30T14:28:57.736Z,100471.25
2023-03-30T14:31:33.537Z,100474.25
2023-03-30T14:34:00.250Z,100476.53
2023-03-30T14:36:33.516Z,100467.44
2023-03-30T14:39:01.558Z,100468.84
2023-03-30T14:41:35.489Z,100471.91
2023-03-30T14:44:13.513Z,100450.94
2023-03-30T14:46:53.478Z,100452.97
2023-03-30T14:49:27.733Z,100463.84
2023-03-30T14:52:09.557Z,100469.69
2023-03-30T14:54:54.244Z,100474.78
2023-03-30T14:57:37.463Z,100474.97
2023-03-30T15:00:23.471Z,100465.22
2023-03-30T15:03:22.931Z,100472.44
2023-03-30T15:06:08.509Z,100470.28
2023-03-30T15:08:46.555Z,100474.97
2023-03-30T15:11:27.520Z,100470.28
2023-03-30T15:14:01.898Z,100475.66
2023-03-30T15:16:39.682Z,100471.63
2023-03-30T15:19:21.328Z,100471.09
2023-03-30T15:21:54.484Z,100470.59
2023-03-30T15:24:35.521Z,100467.69
2023-03-30T15:27:12.010Z,100470.63
2023-03-30T15:29:47.501Z,100465.22
2023-03-30T15:32:15.831Z,100463.34
2023-03-30T15:35:11.605Z,100465.69
2023-03-30T15:37:44.511Z,100465.34
2023-03-30T15:40:36.553Z,100459.84
2023-03-30T15:43:18.641Z,100457.94
2023-03-30T15:46:01.612Z,100465.25
2023-03-30T15:48:41.503Z,100453.72
2023-03-30T15:51:20.608Z,100455.03
2023-03-30T15:53:50.437Z,100465.06
2023-03-30T15:56:36.651Z,100461.97
2023-03-30T15:59:04.214Z,100454.78
2023-03-30T16:02:03.578Z,100461.34
2023-03-30T16:04:36.948Z,100453.97
2023-03-30T16:07:20.567Z,100451.38
2023-03-30T16:09:48.229Z,100453.72
2023-03-30T16:12:27.572Z,100454.69
2023-03-30T16:14:54.549Z,100459.88
2023-03-30T16:17:21.474Z,100462.19
2023-03-30T16:19:54.589Z,100457.75
2023-03-30T16:22:21.466Z,100458.09
2023-03-30T16:24:55.548Z,100462.75
2023-03-30T16:27:22.292Z,100454.50
2023-03-30T16:29:55.543Z,100457.19
2023-03-30T16:32:22.330Z,100447.06
2023-03-30T16:34:55.582Z,100447.22
2023-03-30T16:37:22.518Z,100449.72
2023-03-30T16:39:55.482Z,100446.34
2023-03-30T16:42:22.222Z,100434.91
2023-03-30T16:44:55.519Z,100443.75
2023-03-30T16:47:22.755Z,100445.78
2023-03-30T16:49:56.530Z,100451.44
2023-03-30T16:52:29.589Z,100461.34
2023-03-30T16:54:56.335Z,100450.75
2023-03-30T16:57:29.622Z,100456.28
2023-03-30T16:59:56.495Z,100457.97
2023-03-30T17:02:29.538Z,100456.44
2023-03-30T17:05:09.652Z,100452.38
2023-03-30T17:07:43.572Z,100460.03
2023-03-30T17:10:21.025Z,100453.81
2023-03-30T17:12:54.518Z,100463.56
2023-03-30T17:15:23.011Z,100464.69
2023-03-30T17:17:57.655Z,100453.16
2023-03-30T17:20:29.544Z,100467.69
2023-03-30T17:23:03.559Z,100463.19
2023-03-30T17:25:30.754Z,100464.00
2023-03-30T17:28:04.564Z,100466.84
2023-03-30T17:30:36.591Z,100463.34
2023-03-30T17:33:10.652Z,100465.50
2023-03-30T17:35:38.866Z,100472.00
2023-03-30T17:38:16.550Z,100477.81
2023-03-30T17:40:51.607Z,100470.22
2023-03-30T17:43:18.634Z,100465.88
2023-03-30T17:45:53.644Z,100472.69
2023-03-30T17:48:21.966Z,100476.97
2023-03-30T17:50:57.583Z,100474.88
2023-03-30T17:53:24.561Z,100472.13
2023-03-30T17:55:59.543Z,100462.59
2023-03-30T17:58:36.802Z,100478.81
2023-03-30T18:01:12.697Z,100473.94
2023-03-30T18:03:46.195Z,100486.78
2023-03-30T18:06:19.639Z,100482.00
2023-03-30T18:08:46.505Z,100480.31
2023-03-30T18:11:19.683Z,100490.22
2023-03-30T18:13:46.538Z,100488.25
2023-03-30T18:16:19.639Z,100492.91
2023-03-30T18:18:46.886Z,100489.25
2023-03-30T18:21:20.691Z,100479.84
2023-03-30T18:23:53.641Z,100488.53
2023-03-30T18:26:20.488Z,100481.53
2023-03-30T18:28:53.568Z,100481.13
2023-03-30T18:31:20.357Z,100500.16
2023-03-30T18:33:53.859Z,100481.28
2023-03-30T18:36:21.896Z,100482.41
2023-03-30T18:38:55.622Z,100483.25
2023-03-30T18:41:22.551Z,100493.25
2023-03-30T18:43:55.609Z,100503.00
2023-03-30T18:46:22.621Z,100504.69
2023-03-30T18:48:55.625Z,100506.97
2023-03-30T18:51:22.433Z,100503.31
2023-03-30T18:53:49.160Z,100517.81
2023-03-30T18:56:22.628Z,100520.09
2023-03-30T18:58:55.612Z,100523.06
2023-03-30T19:01:28.751Z,100520.53
2023-03-30T19:04:08.658Z,100522.66
2023-03-30T19:06:35.553Z,100516.44
2023-03-30T19:09:08.686Z,100525.03
2023-03-30T19:11:41.685Z,100518.69
2023-03-30T19:14:17.630Z,100522.34
2023-03-30T19:16:50.681Z,100523.47
2023-03-30T19:19:17.464Z,100504.78
2023-03-30T19:21:52.621Z,100521.53
2023-03-30T19:24:19.476Z,100524.34
2023-03-30T19:26:53.633Z,100522.09
2023-03-30T19:29:20.422Z,100515.50
2023-03-30T19:31:53.649Z,100525.06
2023-03-30T19:34:20.722Z,100526.63
2023-03-30T19:36:53.639Z,100528.72
2023-03-30T19:39:21.023Z,100523.25
2023-03-30T19:41:54.711Z,100518.91
2023-03-30T19:44:22.394Z,100511.03
2023-03-30T19:46:55.656Z,100508.75
2023-03-30T19:49:28.662Z,100513.13
2023-03-30T19:51:55.429Z,100515.34
2023-03-30T19:54:28.620Z,100514.09
2023-03-30T19:56:55.503Z,100511.16
2023-03-30T19:59:28.715Z,100506.25
2023-03-30T20:01:56.189Z,100492.56
2023-03-30T20:04:36.639Z,100494.44
2023-03-30T20:07:03.710Z,100496.69
2023-03-30T20:09:37.656Z,100505.13
2023-03-30T20:12:11.682Z,100498.91
2023-03-30T20:14:38.861Z,100491.34
2023-03-30T20:17:16.713Z,100496.66
2023-03-30T20:19:43.495Z,100492.88
2023-03-30T20:22:16.651Z,100492.03
2023-03-30T20:24:45.146Z,100500.03
2023-03-30T20:27:18.694Z,100491.19
2023-03-30T20:29:45.432Z,100485.84
2023-03-30T20:32:18.645Z,100491.19
2023-03-30T20:34:46.354Z,100479.94
2023-03-30T20:37:19.661Z,100477.41
2023-03-30T20:39:46.754Z,100481.91
2023-03-30T20:42:20.647Z,100479.22
2023-03-30T20:44:50.563Z,100478.41
2023-03-30T20:47:24.762Z,100465.44
2023-03-30T20:49:53.960Z,100465.59
2023-03-30T20:52:28.739Z,100461.38
2023-03-30T20:55:02.681Z,100451.38
2023-03-30T20:57:35.626Z,100448.28
2023-03-30T21:00:02.511Z,100444.75
2023-03-30T21:02:35.883Z,100451.06
2023-03-30T21:05:16.779Z,100456.28
2023-03-30T21:07:53.671Z,100453.75
2023-03-30T21:10:26.751Z,100449.25
2023-03-30T21:12:53.505Z,100440.81
2023-03-30T21:15:26.704Z,100446.44
2023-03-30T21:17:53.442Z,100449.38
2023-03-30T21:20:28.826Z,100441.94
2023-03-30T21:22:55.590Z,100441.63
2023-03-30T21:25:28.770Z,100435.16
2023-03-30T21:27:55.807Z,100437.16
2023-03-30T21:30:28.749Z,100440.06
2023-03-30T21:33:01.747Z,100437.81
2023-03-30T21:35:29.154Z,100431.78
2023-03-30T21:38:04.030Z,100438.38
2023-03-30T21:40:31.137Z,100427.25
2023-03-30T21:43:04.779Z,100434.41
2023-03-30T21:45:31.513Z,100421.22
2023-03-30T21:48:04.791Z,100436.25
2023-03-30T21:50:31.612Z,100431.88
2023-03-30T21:53:05.741Z,100431.16
2023-03-30T21:55:32.536Z,100424.88
2023-03-30T21:58:22.708Z,100425.97
2023-03-30T22:01:08.930Z,100417.00
2023-03-30T22:03:44.915Z,100414.34
2023-03-30T22:06:14.128Z,100413.91
2023-03-30T22:08:41.418Z,100412.81
2023-03-30T22:11:24.695Z,100402.81
2023-03-30T22:13:58.679Z,100406.91
2023-03-30T22:16:33.438Z,100404.09
2023-03-30T22:19:06.722Z,100405.81
2023-03-30T22:21:40.126Z,100401.31
2023-03-30T22:24:14.674Z,100395.69
2023-03-30T22:26:47.745Z,100386.00
2023-03-30T22:29:20.780Z,100391.22
2023-03-30T22:31:47.710Z,100383.47
2023-03-30T22:34:20.774Z,100384.47
2023-03-30T22:36:53.627Z,100386.41
2023-03-30T22:39:20.465Z,100385.16
2023-03-30T22:41:53.680Z,100385.44
2023-03-30T22:44:21.652Z,100387.53
2023-03-30T22:46:54.684Z,100375.16
2023-03-30T22:49:21.445Z,100377.97
2023-03-30T22:51:56.756Z,100376.16
2023-03-30T22:54:23.767Z,100381.47
2023-03-30T22:56:56.759Z,100369.81
2023-03-30T22:59:23.666Z,100370.81
2023-03-30T23:01:57.675Z,100363.09
2023-03-30T23:04:31.123Z,100363.91
2023-03-30T23:07:04.746Z,100356.06
2023-03-30T23:09:32.364Z,100347.34
2023-03-30T23:12:06.762Z,100346.63
2023-03-30T23:14:41.964Z,100333.44
2023-03-30T23:17:15.781Z,100340.47
2023-03-30T23:19:52.744Z,100347.88
2023-03-30T23:22:22.301Z,100335.09
2023-03-30T23:24:55.719Z,100339.84
2023-03-30T23:27:23.011Z,100336.75
2023-03-30T23:29:56.740Z,100336.19
2023-03-30T23:32:29.805Z,100329.44
2023-03-30T23:34:56.590Z,100326.34
2023-03-30T23:37:29.829Z,100317.78
2023-03-30T23:39:59.070Z,100314.69
2023-03-30T23:42:32.771Z,100316.78
2023-03-30T23:44:59.588Z,100306.38
2023-03-30T23:47:33.824Z,100304.81
2023-03-30T23:50:07.789Z,100296.53
2023-03-30T23:52:40.789Z,100289.41
2023-03-30T23:55:14.791Z,100290.63
2023-03-30T23:57:41.742Z,100271.81
